Time;durP1;ratioP1;P1;durP2;ratioP2;P2;SDS_P1;SDS_P2;PMS_P1;PMS_P2;Temp;Humidity;BMP_temperature;BMP_pressure;BME280_temperature;BME280_humidity;BME280_pressure;Samples;Min_cycle;Max_cycle;Signal;HPM_P1;HPM_P2
2022/05/30 00:01:16;;;;;;;;;;;;;;;21.05;60.85;100005.03;7402445;19;1669;-59
2022/05/30 00:03:44;;;;;;;;;;;;;;;21.03;60.68;99996.28;7404057;19;1531;-59
2022/05/30 00:06:14;;;;;;;;;;;;;;;21.03;60.60;100004.34;7405099;19;1627;-59
2022/05/30 00:08:42;;;;;;;;;;;;;;;21.01;60.60;99992.94;7403408;19;1853;-59
2022/05/30 00:11:15;;;;;;;;;;;;;;;21.03;60.32;99991.75;7403104;19;1252;-59
2022/05/30 00:13:44;;;;;;;;;;;;;;;21.01;60.46;99980.31;7405910;19;1531;-59
2022/05/30 00:16:13;;;;;;;;;;;;;;;20.88;60.29;99988.03;7405222;19;1261;-59
2022/05/30 00:18:41;;;;;;;;;;;;;;;20.84;60.52;99997.44;7405324;19;1661;-59
2022/05/30 00:21:10;;;;;;;;;;;;;;;20.83;61.03;99990.38;7404465;19;1772;-59
2022/05/30 00:23:40;;;;;;;;;;;;;;;20.85;61.30;99983.00;7403267;19;1500;-59
2022/05/30 00:26:09;;;;;;;;;;;;;;;20.86;60.75;99982.00;7404011;19;1227;-60
2022/05/30 00:28:40;;;;;;;;;;;;;;;20.89;60.80;99999.63;7404634;19;1848;-59
2022/05/30 00:31:10;;;;;;;;;;;;;;;20.89;60.94;99999.63;7405459;19;1562;-59
2022/05/30 00:33:39;;;;;;;;;;;;;;;20.90;61.34;99991.41;7405061;19;1768;-60
2022/05/30 00:36:07;;;;;;;;;;;;;;;20.89;61.25;99995.09;7403995;19;1749;-59
2022/05/30 00:38:36;;;;;;;;;;;;;;;20.89;61.18;99979.00;7404294;19;1594;-59
2022/05/30 00:41:06;;;;;;;;;;;;;;;20.89;61.70;99989.72;7404818;19;1528;-59
2022/05/30 00:43:35;;;;;;;;;;;;;;;20.93;61.88;99980.31;7405487;19;1170;-59
2022/05/30 00:46:11;;;;;;;;;;;;;;;20.91;61.46;99976.97;7404051;19;1685;-59
2022/05/30 00:48:46;;;;;;;;;;;;;;;20.91;61.96;99982.34;7402851;19;1849;-59
2022/05/30 00:51:16;;;;;;;;;;;;;;;20.96;61.84;99990.72;7403477;19;1505;-59
2022/05/30 00:53:46;;;;;;;;;;;;;;;21.02;61.71;99983.84;7402098;19;1537;-59
2022/05/30 00:56:16;;;;;;;;;;;;;;;21.05;61.55;99978.97;7404350;19;1619;-59
2022/05/30 00:58:46;;;;;;;;;;;;;;;21.03;61.68;99981.00;7405190;19;1220;-59
2022/05/30 01:01:17;;;;;;;;;;;;;;;21.04;61.95;99990.72;7403628;19;1528;-59
2022/05/30 01:06:34;;;;;;;;;;;;;;;21.02;61.45;99989.22;7403850;19;1749;-59
2022/05/30 01:09:04;;;;;;;;;;;;;;;21.09;61.59;99990.25;7401348;19;1865;-59
2022/05/30 01:11:47;;;;;;;;;;;;;;;21.02;61.34;99991.91;7402692;19;1363;-59
2022/05/30 01:14:15;;;;;;;;;;;;;;;21.06;61.67;100004.84;7403022;19;1331;-59
2022/05/30 01:16:46;;;;;;;;;;;;;;;20.99;61.46;99974.28;7403564;19;1331;-59
2022/05/30 01:19:20;;;;;;;;;;;;;;;20.97;61.32;99997.78;7403727;19;1339;-59
2022/05/30 01:21:57;;;;;;;;;;;;;;;20.97;61.30;99970.06;7404298;19;1726;-59
2022/05/30 01:24:38;;;;;;;;;;;;;;;21.02;61.46;99998.13;7410655;19;1670;-59
2022/05/30 01:27:15;;;;;;;;;;;;;;;21.00;61.68;100000.13;7409457;19;1477;-59
2022/05/30 01:29:49;;;;;;;;;;;;;;;21.02;61.66;100000.81;7410096;19;1295;-60
2022/05/30 01:32:20;;;;;;;;;;;;;;;20.98;61.64;100022.81;7409991;19;1741;-59
2022/05/30 01:34:49;;;;;;;;;;;;;;;20.99;61.41;100009.22;7407536;19;1264;-59
2022/05/30 01:37:17;;;;;;;;;;;;;;;21.00;61.79;100026.19;7409953;19;1093;-60
2022/05/30 01:39:45;;;;;;;;;;;;;;;21.05;61.71;100031.91;7409497;19;1298;-59
2022/05/30 01:42:15;;;;;;;;;;;;;;;21.04;61.77;100022.97;7409289;19;1390;-59
2022/05/30 01:44:46;;;;;;;;;;;;;;;21.05;61.93;100023.84;7409488;19;1178;-59
2022/05/30 01:47:14;;;;;;;;;;;;;;;21.09;61.92;100016.25;7409037;19;1753;-59
2022/05/30 01:49:43;;;;;;;;;;;;;;;20.97;61.99;100016.63;7408089;19;1360;-59
2022/05/30 01:52:11;;;;;;;;;;;;;;;20.95;62.34;100041.97;7409002;19;1324;-59
2022/05/30 01:54:39;;;;;;;;;;;;;;;20.83;61.85;100018.09;7407455;19;1432;-59
2022/05/30 01:57:08;;;;;;;;;;;;;;;20.86;62.20;100001.63;7408372;19;1357;-59
2022/05/30 01:59:36;;;;;;;;;;;;;;;20.94;62.30;100016.94;7408177;19;1155;-59
2022/05/30 02:02:07;;;;;;;;;;;;;;;21.08;61.97;100025.34;7383981;19;1858;-39
2022/05/30 02:04:36;;;;;;;;;;;;;;;21.01;62.05;100004.53;7394601;19;1195;-39
2022/05/30 02:07:04;;;;;;;;;;;;;;;21.05;62.07;100015.78;7395555;19;1875;-38
2022/05/30 02:09:40;;;;;;;;;;;;;;;21.02;62.09;100014.25;7400207;19;1865;-40
2022/05/30 02:12:10;;;;;;;;;;;;;;;21.04;62.17;100014.91;7401997;19;1978;-39
2022/05/30 02:14:40;;;;;;;;;;;;;;;20.98;62.08;100023.66;7403044;19;1557;-39
2022/05/30 02:17:13;;;;;;;;;;;;;;;20.97;62.14;100016.63;7402297;19;1533;-39
2022/05/30 02:19:51;;;;;;;;;;;;;;;20.98;62.15;100012.91;7404819;19;1824;-39
2022/05/30 02:22:22;;;;;;;;;;;;;;;20.97;62.09;100011.25;7404616;19;1603;-38
2022/05/30 02:24:51;;;;;;;;;;;;;;;20.96;62.30;100012.22;7402456;19;1407;-39
2022/05/30 02:27:22;;;;;;;;;;;;;;;20.95;62.06;100015.94;7403589;19;1617;-39
2022/05/30 02:29:57;;;;;;;;;;;;;;;21.01;62.27;100031.41;7402771;19;1851;-39
2022/05/30 02:32:32;;;;;;;;;;;;;;;20.94;61.95;100030.38;7403672;19;1619;-38
2022/05/30 02:37:47;;;;;;;;;;;;;;;20.99;62.48;100044.16;7404938;19;1038;-39
2022/05/30 02:40:19;;;;;;;;;;;;;;;21.08;61.96;100025.34;7403977;19;1481;-39
2022/05/30 02:42:52;;;;;;;;;;;;;;;21.05;62.24;100022.00;7403539;19;1473;-39
2022/05/30 02:45:20;;;;;;;;;;;;;;;21.05;62.36;100022.00;7403903;19;1654;-39
2022/05/30 02:47:52;;;;;;;;;;;;;;;21.12;62.87;100026.69;7404215;19;1861;-39
2022/05/30 02:50:24;;;;;;;;;;;;;;;21.04;63.30;100025.66;7404657;19;1758;-39
2022/05/30 02:52:52;;;;;;;;;;;;;;;21.10;63.34;100034.09;7405975;19;1126;-39
2022/05/30 02:55:23;;;;;;;;;;;;;;;21.09;63.27;100033.25;7405105;19;1311;-38
2022/05/30 02:57:52;;;;;;;;;;;;;;;21.17;63.22;100041.31;7404577;19;1582;-39
2022/05/30 03:00:20;;;;;;;;;;;;;;;21.17;63.60;100045.84;7403780;19;1567;-39
2022/05/30 03:02:51;;;;;;;;;;;;;;;21.23;63.55;100059.47;7402760;19;1905;-39
2022/05/30 03:05:22;;;;;;;;;;;;;;;21.19;63.82;100039.31;7403176;19;1460;-39
2022/05/30 03:07:52;;;;;;;;;;;;;;;21.17;63.89;100044.00;7403342;19;1861;-39
2022/05/30 03:10:22;;;;;;;;;;;;;;;21.16;63.98;100049.56;7403139;19;1479;-39
2022/05/30 03:12:54;;;;;;;;;;;;;;;21.17;63.82;100051.22;7403355;19;1584;-39
2022/05/30 03:15:25;;;;;;;;;;;;;;;21.19;63.90;100054.59;7403697;19;1470;-39
2022/05/30 03:17:55;;;;;;;;;;;;;;;21.22;63.72;100075.78;7403497;19;1799;-39
2022/05/30 03:20:29;;;;;;;;;;;;;;;21.26;63.88;100060.97;7403257;19;1773;-39
2022/05/30 03:23:02;;;;;;;;;;;;;;;21.23;63.72;100050.56;7403949;19;1598;-39
2022/05/30 03:25:52;;;;;;;;;;;;;;;21.19;64.16;100081.50;7403839;19;1632;-39
2022/05/30 03:28:20;;;;;;;;;;;;;;;21.19;64.18;100092.25;7402889;19;1857;-39
2022/05/30 03:30:56;;;;;;;;;;;;;;;21.16;64.05;100093.41;7403260;19;1825;-38
2022/05/30 03:33:28;;;;;;;;;;;;;;;21.18;64.12;100101.31;7402970;19;1723;-39
2022/05/30 03:35:59;;;;;;;;;;;;;;;21.14;64.36;100100.78;7402886;19;1771;-39
2022/05/30 03:38:28;;;;;;;;;;;;;;;21.15;64.18;100101.63;7402804;19;1699;-39
2022/05/30 03:40:58;;;;;;;;;;;;;;;21.13;64.17;100101.81;7403324;19;1366;-39
2022/05/30 03:43:28;;;;;;;;;;;;;;;21.12;64.51;100116.25;7402825;19;1959;-39
2022/05/30 03:45:58;;;;;;;;;;;;;;;21.09;64.50;100121.97;7400971;19;1686;-39
2022/05/30 03:48:26;;;;;;;;;;;;;;;21.12;64.45;100139.63;7401946;19;1908;-39
2022/05/30 03:50:55;;;;;;;;;;;;;;;21.12;64.27;100126.16;7401958;19;1669;-39
2022/05/30 03:53:28;;;;;;;;;;;;;;;21.12;64.34;100128.84;7402760;19;1685;-39
2022/05/30 03:56:00;;;;;;;;;;;;;;;21.20;64.31;100153.06;7403270;19;1485;-39
2022/05/30 03:58:30;;;;;;;;;;;;;;;21.24;64.18;100157.09;7402759;19;1630;-39
2022/05/30 04:01:01;;;;;;;;;;;;;;;21.22;64.28;100154.56;7398794;19;1832;-39
2022/05/30 04:03:31;;;;;;;;;;;;;;;21.07;64.96;100169.69;7399176;19;1753;-39
2022/05/30 04:06:02;;;;;;;;;;;;;;;21.05;64.84;100156.41;7402336;19;1583;-38
2022/05/30 04:08:38;;;;;;;;;;;;;;;21.11;64.65;100172.88;7400431;19;2025;-39
2022/05/30 04:11:08;;;;;;;;;;;;;;;21.13;64.49;100157.41;7402082;19;1688;-38
2022/05/30 04:13:38;;;;;;;;;;;;;;;21.24;64.82;100171.38;7402365;19;1579;-39
2022/05/30 04:16:18;;;;;;;;;;;;;;;21.04;64.76;100160.09;7404863;19;1853;-39
2022/05/30 04:18:46;;;;;;;;;;;;;;;21.08;65.22;100187.50;7402949;19;1892;-38
2022/05/30 04:21:17;;;;;;;;;;;;;;;21.03;64.81;100173.72;7400895;19;1584;-39
2022/05/30 04:23:49;;;;;;;;;;;;;;;20.99;64.82;100177.69;7402058;19;1578;-39
2022/05/30 04:26:30;;;;;;;;;;;;;;;20.96;64.77;100180.72;7401238;19;1682;-39
2022/05/30 04:29:02;;;;;;;;;;;;;;;20.98;65.06;100186.78;7398936;19;1867;-39
2022/05/30 04:31:37;;;;;;;;;;;;;;;20.98;64.98;100182.25;7400041;19;1634;-39
2022/05/30 04:34:05;;;;;;;;;;;;;;;20.93;65.28;100173.84;7401993;19;1812;-39
2022/05/30 04:36:36;;;;;;;;;;;;;;;20.93;65.18;100175.66;7404493;19;1677;-39
2022/05/30 04:39:09;;;;;;;;;;;;;;;20.95;65.24;100181.72;7399450;19;1576;-38
2022/05/30 04:41:45;;;;;;;;;;;;;;;20.91;65.34;100175.84;7401153;19;1425;-39
2022/05/30 04:44:15;;;;;;;;;;;;;;;20.93;65.29;100171.16;7401281;19;1240;-39
2022/05/30 04:46:47;;;;;;;;;;;;;;;20.91;65.31;100170.47;7400312;19;1922;-39
2022/05/30 04:49:17;;;;;;;;;;;;;;;20.91;65.42;100165.09;7399417;19;1853;-39
2022/05/30 04:51:48;;;;;;;;;;;;;;;20.93;65.43;100184.59;7399997;19;2046;-39
2022/05/30 04:54:21;;;;;;;;;;;;;;;20.91;65.46;100167.78;7401365;19;1689;-38
2022/05/30 04:56:52;;;;;;;;;;;;;;;20.88;65.63;100162.72;7401326;19;1665;-38
2022/05/30 04:59:23;;;;;;;;;;;;;;;20.90;65.56;100178.69;7408897;19;1469;-38
2022/05/30 05:01:51;;;;;;;;;;;;;;;20.88;65.62;100180.72;7406258;19;1934;-39
2022/05/30 05:04:21;;;;;;;;;;;;;;;20.90;65.58;100184.91;7408045;19;1778;-39
2022/05/30 05:06:58;;;;;;;;;;;;;;;20.88;65.77;100207.56;7405093;19;1528;-39
2022/05/30 05:09:47;;;;;;;;;;;;;;;20.93;65.63;100200.72;7405640;19;1848;-39
2022/05/30 05:12:15;;;;;;;;;;;;;;;20.98;66.15;100211.81;7406806;19;1561;-38
2022/05/30 05:14:50;;;;;;;;;;;;;;;21.18;64.94;100220.44;7408689;19;1795;-39
2022/05/30 05:17:19;;;;;;;;;;;;;;;21.12;65.17;100231.84;7408196;19;1970;-37
2022/05/30 05:19:49;;;;;;;;;;;;;;;21.12;65.25;100241.78;7405778;19;1934;-40
2022/05/30 05:22:20;;;;;;;;;;;;;;;21.11;65.01;100227.50;7407044;19;1752;-39
2022/05/30 05:24:58;;;;;;;;;;;;;;;21.13;65.42;100238.94;7406884;19;1595;-38
2022/05/30 05:27:30;;;;;;;;;;;;;;;21.17;65.43;100224.16;7406584;19;1375;-38
2022/05/30 05:30:01;;;;;;;;;;;;;;;21.20;65.38;100231.88;7404163;19;1850;-39
2022/05/30 05:32:32;;;;;;;;;;;;;;;21.14;65.63;100242.47;7408180;19;1681;-38
2022/05/30 05:35:02;;;;;;;;;;;;;;;21.15;65.97;100239.63;7406166;19;2328;-40
2022/05/30 05:37:35;;;;;;;;;;;;;;;21.14;66.39;100255.91;7408839;19;1029;-40
2022/05/30 05:40:08;;;;;;;;;;;;;;;21.14;66.19;100254.03;7405714;19;1807;-39
2022/05/30 05:42:41;;;;;;;;;;;;;;;21.13;66.37;100249.69;7404646;19;1872;-40
2022/05/30 05:45:11;;;;;;;;;;;;;;;21.13;66.45;100248.81;7404061;19;1560;-40
2022/05/30 05:47:42;;;;;;;;;;;;;;;21.02;66.63;100253.50;7403474;19;1695;-40
2022/05/30 05:50:11;;;;;;;;;;;;;;;20.99;66.68;100272.66;7402101;19;1844;-40
2022/05/30 05:52:39;;;;;;;;;;;;;;;20.97;66.78;100255.84;7403233;19;1627;-40
2022/05/30 05:55:10;;;;;;;;;;;;;;;21.00;66.54;100260.88;7402951;19;1665;-40
2022/05/30 05:57:39;;;;;;;;;;;;;;;21.00;66.78;100260.88;7404905;19;1558;-39
2022/05/30 06:00:08;;;;;;;;;;;;;;;21.03;66.45;100279.38;7403353;19;1926;-40
2022/05/30 06:02:36;;;;;;;;;;;;;;;21.00;66.43;100277.00;7398731;19;1646;-40
2022/05/30 06:05:04;;;;;;;;;;;;;;;20.99;66.24;100279.84;7401368;19;1828;-40
2022/05/30 06:07:34;;;;;;;;;;;;;;;20.98;66.32;100268.25;7402703;19;1674;-40
2022/05/30 06:10:02;;;;;;;;;;;;;;;20.98;66.21;100279.00;7398222;19;1842;-40
2022/05/30 06:12:37;;;;;;;;;;;;;;;20.96;66.08;100290.94;7404030;19;1685;-40
2022/05/30 06:15:05;;;;;;;;;;;;;;;20.96;66.18;100270.25;7402320;19;1897;-39
2022/05/30 06:17:33;;;;;;;;;;;;;;;20.95;66.19;100291.91;7404689;19;1847;-39
2022/05/30 06:20:02;;;;;;;;;;;;;;;20.95;66.28;100295.47;7405560;19;1620;-39
2022/05/30 06:22:30;;;;;;;;;;;;;;;20.92;66.53;100276.97;7406540;19;1748;-39
2022/05/30 06:24:58;;;;;;;;;;;;;;;20.95;66.15;100287.41;7404826;19;1677;-39
2022/05/30 06:27:26;;;;;;;;;;;;;;;20.94;66.43;100296.47;7405009;19;1751;-39
2022/05/30 06:29:57;;;;;;;;;;;;;;;20.96;66.13;100305.22;7402136;19;1854;-40
2022/05/30 06:32:26;;;;;;;;;;;;;;;21.01;66.58;100316.34;7405051;19;1457;-40
2022/05/30 06:34:54;;;;;;;;;;;;;;;20.94;66.44;100303.69;7402866;19;1755;-40
2022/05/30 06:37:23;;;;;;;;;;;;;;;20.98;66.36;100319.34;7406139;19;1969;-39
2022/05/30 06:39:53;;;;;;;;;;;;;;;20.92;66.22;100305.69;7402665;19;2064;-39
2022/05/30 06:42:21;;;;;;;;;;;;;;;20.89;66.04;100290.75;7403467;19;1663;-39
2022/05/30 06:44:49;;;;;;;;;;;;;;;20.92;66.04;100316.44;7403945;19;1506;-40
2022/05/30 06:47:20;;;;;;;;;;;;;;;20.95;66.25;100313.44;7404650;19;1575;-40
2022/05/30 06:49:49;;;;;;;;;;;;;;;20.95;66.34;100316.97;7403191;19;1914;-39
2022/05/30 06:52:17;;;;;;;;;;;;;;;20.95;66.18;100326.88;7404566;19;1961;-39
2022/05/30 06:54:45;;;;;;;;;;;;;;;20.93;66.33;100318.97;7403184;19;1837;-40
2022/05/30 06:59:54;;;;;;;;;;;;;;;21.01;66.16;100321.72;7405133;19;1599;-40
2022/05/30 07:02:25;;;;;;;;;;;;;;;20.97;66.13;100331.09;7403236;19;1835;-40
2022/05/30 07:04:53;;;;;;;;;;;;;;;21.00;66.42;100328.06;7404381;19;1976;-40
2022/05/30 07:07:21;;;;;;;;;;;;;;;20.98;66.30;100335.47;7403242;19;1578;-40
2022/05/30 07:09:50;;;;;;;;;;;;;;;21.04;66.24;100337.50;7403890;19;1868;-40
2022/05/30 07:12:18;;;;;;;;;;;;;;;21.00;66.32;100338.84;7401538;19;1574;-41
2022/05/30 07:14:47;;;;;;;;;;;;;;;21.03;66.03;100335.84;7402004;19;1429;-40
2022/05/30 07:17:16;;;;;;;;;;;;;;;21.01;65.86;100343.22;7401528;19;1925;-39
2022/05/30 07:19:48;;;;;;;;;;;;;;;21.02;66.11;100360.19;7401931;19;1784;-40
2022/05/30 07:22:17;;;;;;;;;;;;;;;21.01;65.71;100350.44;7398813;19;1679;-40
2022/05/30 07:24:46;;;;;;;;;;;;;;;21.03;65.87;100361.88;7398619;19;1763;-40
2022/05/30 07:27:14;;;;;;;;;;;;;;;21.03;65.93;100362.72;7403208;19;1779;-40
2022/05/30 07:29:42;;;;;;;;;;;;;;;20.99;66.08;100366.72;7402049;19;1854;-40
2022/05/30 07:32:11;;;;;;;;;;;;;;;21.03;66.11;100378.00;7398492;19;1748;-40
2022/05/30 07:34:40;;;;;;;;;;;;;;;21.05;65.79;100367.94;7399743;19;1570;-40
2022/05/30 07:37:10;;;;;;;;;;;;;;;21.00;65.72;100384.53;7401776;19;1432;-40
2022/05/30 07:39:39;;;;;;;;;;;;;;;21.04;65.61;100380.53;7400605;19;1892;-40
2022/05/30 07:42:10;;;;;;;;;;;;;;;21.09;65.60;100376.50;7400344;19;1733;-39
2022/05/30 07:44:38;;;;;;;;;;;;;;;21.02;65.84;100377.16;7401813;19;1662;-39
2022/05/30 07:47:07;;;;;;;;;;;;;;;21.03;65.84;100386.91;7402592;19;1586;-39
2022/05/30 07:49:35;;;;;;;;;;;;;;;21.00;65.53;100391.75;7401893;19;1859;-40
2022/05/30 07:52:03;;;;;;;;;;;;;;;21.00;65.81;100400.66;7403566;19;1920;-39
2022/05/30 07:54:35;;;;;;;;;;;;;;;21.02;65.90;100405.88;7401903;19;1487;-40
2022/05/30 07:57:05;;;;;;;;;;;;;;;20.94;65.86;100405.84;7401242;19;1507;-40
2022/05/30 07:59:35;;;;;;;;;;;;;;;21.01;65.77;100396.16;7402966;19;1685;-40
2022/05/30 08:02:03;;;;;;;;;;;;;;;21.05;65.63;100417.16;7399571;19;1820;-40
2022/05/30 08:04:31;;;;;;;;;;;;;;;21.08;65.71;100428.63;7401788;19;1586;-41
2022/05/30 08:07:00;;;;;;;;;;;;;;;21.08;65.74;100423.22;7403006;19;1083;-40
2022/05/30 08:09:28;;;;;;;;;;;;;;;21.05;65.78;100414.47;7401940;19;1947;-40
2022/05/30 08:11:59;;;;;;;;;;;;;;;21.09;65.92;100422.22;7401262;19;1806;-40
2022/05/30 08:14:27;;;;;;;;;;;;;;;21.02;65.67;100414.78;7401512;19;1841;-40
2022/05/30 08:16:55;;;;;;;;;;;;;;;21.03;65.71;100419.19;7401791;19;1924;-40
2022/05/30 08:19:23;;;;;;;;;;;;;;;21.03;66.03;100427.25;7401770;19;1923;-39
2022/05/30 08:21:52;;;;;;;;;;;;;;;21.03;65.93;100429.09;7401895;19;1758;-40
2022/05/30 08:24:20;;;;;;;;;;;;;;;21.01;66.17;100429.25;7400753;19;1675;-42
2022/05/30 08:26:48;;;;;;;;;;;;;;;21.04;65.76;100428.91;7401754;19;1945;-40
2022/05/30 08:29:19;;;;;;;;;;;;;;;21.01;65.71;100423.88;7402700;19;1575;-40
2022/05/30 08:31:47;;;;;;;;;;;;;;;21.09;65.68;100436.53;7397441;19;1840;-40
2022/05/30 08:34:16;;;;;;;;;;;;;;;21.07;65.58;100427.78;7399801;19;1499;-40
2022/05/30 08:36:44;;;;;;;;;;;;;;;21.13;65.62;100431.66;7400838;19;1493;-39
2022/05/30 08:41:54;;;;;;;;;;;;;;;21.15;65.82;100429.66;7401719;19;1599;-40
2022/05/30 08:44:25;;;;;;;;;;;;;;;21.17;65.99;100449.16;7401210;19;1680;-40
2022/05/30 08:46:58;;;;;;;;;;;;;;;21.16;65.73;100432.19;7401067;19;1833;-40
2022/05/30 08:49:30;;;;;;;;;;;;;;;21.29;65.72;100445.22;7401007;19;1543;-39
2022/05/30 08:52:18;;;;;;;;;;;;;;;21.25;65.98;100452.75;7399412;19;1838;-39
2022/05/30 08:54:54;;;;;;;;;;;;;;;21.30;65.78;100451.44;7398381;19;1494;-40
2022/05/30 08:57:35;;;;;;;;;;;;;;;21.23;66.13;100448.56;7399373;19;1747;-40
2022/05/30 09:00:10;;;;;;;;;;;;;;;21.35;65.82;100451.81;7400357;19;1505;-40
2022/05/30 09:02:41;;;;;;;;;;;;;;;21.33;65.86;100453.81;7397458;19;1493;-40
2022/05/30 09:05:11;;;;;;;;;;;;;;;21.24;65.97;100459.13;7400511;19;1195;-40
2022/05/30 09:07:41;;;;;;;;;;;;;;;21.30;66.12;100471.09;7400045;19;1974;-40
2022/05/30 09:10:13;;;;;;;;;;;;;;;21.33;66.08;100460.03;7399109;19;1851;-40
2022/05/30 09:12:45;;;;;;;;;;;;;;;21.34;66.41;100460.88;7399746;19;1631;-40
2022/05/30 09:15:19;;;;;;;;;;;;;;;21.35;66.57;100458.03;7399781;19;1792;-41
2022/05/30 09:17:49;;;;;;;;;;;;;;;21.47;66.00;100466.72;7399152;19;1461;-41
2022/05/30 09:20:20;;;;;;;;;;;;;;;21.55;66.09;100484.75;7396569;19;2224;-44
2022/05/30 09:22:49;;;;;;;;;;;;;;;21.55;65.78;100464.06;7399712;19;1909;-42
2022/05/30 09:27:59;;;;;;;;;;;;;;;21.55;66.21;100482.06;7400361;19;2113;-43
2022/05/30 09:30:33;;;;;;;;;;;;;;;21.56;66.08;100460.38;7398035;19;1857;-43
2022/05/30 09:33:05;;;;;;;;;;;;;;;21.53;65.66;100470.63;7399452;19;1835;-42
2022/05/30 09:35:34;;;;;;;;;;;;;;;21.65;65.88;100477.41;7398245;19;1763;-44
2022/05/30 09:38:08;;;;;;;;;;;;;;;21.55;65.88;100479.38;7400823;19;1412;-43
2022/05/30 09:40:47;;;;;;;;;;;;;;;21.44;66.02;100480.47;7396814;19;1726;-43
2022/05/30 09:43:24;;;;;;;;;;;;;;;21.36;66.24;100473.16;7398731;19;1657;-43
2022/05/30 09:45:55;;;;;;;;;;;;;;;21.37;65.85;100477.56;7403760;19;1458;-43
2022/05/30 09:48:24;;;;;;;;;;;;;;;21.33;65.91;100483.38;7406073;19;1385;-42
2022/05/30 09:50:53;;;;;;;;;;;;;;;21.30;65.73;100479.19;7405978;19;1865;-43
2022/05/30 09:53:36;;;;;;;;;;;;;;;21.28;65.71;100481.19;7407041;19;1809;-43
2022/05/30 09:56:05;;;;;;;;;;;;;;;21.25;65.74;100482.34;7410276;19;1470;-43
2022/05/30 09:58:43;;;;;;;;;;;;;;;21.26;65.65;100486.72;7408939;19;1883;-43
2022/05/30 10:01:14;;;;;;;;;;;;;;;21.30;65.58;100479.19;7406014;19;1946;-43
2022/05/30 10:03:44;;;;;;;;;;;;;;;21.29;65.84;100474.81;7402746;19;1625;-42
2022/05/30 10:06:14;;;;;;;;;;;;;;;21.31;65.73;100472.81;7404931;19;1533;-43
2022/05/30 10:08:42;;;;;;;;;;;;;;;21.41;65.37;100476.22;7406367;19;1657;-43
2022/05/30 10:11:11;;;;;;;;;;;;;;;21.44;65.43;100470.56;7404097;19;1857;-43
2022/05/30 10:13:40;;;;;;;;;;;;;;;21.48;65.42;100489.91;7405177;19;1525;-45
2022/05/30 10:16:12;;;;;;;;;;;;;;;21.54;65.36;100472.31;7407572;19;1606;-43
2022/05/30 10:18:46;;;;;;;;;;;;;;;21.53;65.29;100470.63;7407352;19;1726;-43
2022/05/30 10:21:22;;;;;;;;;;;;;;;21.51;65.41;100453.81;7405570;19;1674;-43
2022/05/30 10:29:29;;;;;;;;;;;;;;;21.57;65.16;100461.22;7405165;19;1380;-43
2022/05/30 10:32:02;;;;;;;;;;;;;;;21.59;65.21;100468.13;7401925;19;1857;-43
2022/05/30 10:34:49;;;;;;;;;;;;;;;21.55;65.20;100463.25;7405004;19;1729;-44
2022/05/30 10:37:26;;;;;;;;;;;;;;;21.58;64.80;100462.91;7404743;19;1577;-43
2022/05/30 10:40:12;;;;;;;;;;;;;;;21.56;65.09;100456.84;7403083;19;1718;-44
2022/05/30 10:42:42;;;;;;;;;;;;;;;21.56;64.98;100454.16;7402796;19;1929;-43
2022/05/30 10:45:14;;;;;;;;;;;;;;;21.53;64.73;100459.88;7404466;19;1909;-43
2022/05/30 10:47:45;;;;;;;;;;;;;;;21.54;64.83;100456.16;7403495;19;1571;-43
2022/05/30 10:50:19;;;;;;;;;;;;;;;21.55;64.91;100455.16;7403642;19;1923;-43
2022/05/30 10:52:50;;;;;;;;;;;;;;;21.55;64.91;100444.41;7404424;19;1443;-42
2022/05/30 10:55:22;;;;;;;;;;;;;;;21.62;64.48;100456.19;7402660;19;1776;-44
2022/05/30 10:57:52;;;;;;;;;;;;;;;21.60;64.91;100452.81;7403769;19;1574;-43
2022/05/30 11:00:21;;;;;;;;;;;;;;;21.59;64.94;100462.75;7402139;19;1891;-43
2022/05/30 11:02:57;;;;;;;;;;;;;;;21.60;64.63;100459.03;7402095;19;1547;-43
2022/05/30 11:05:30;;;;;;;;;;;;;;;21.63;64.69;100450.66;7404565;19;1679;-42
2022/05/30 11:08:05;;;;;;;;;;;;;;;21.67;64.57;100456.56;7403135;19;1785;-42
2022/05/30 11:10:40;;;;;;;;;;;;;;;21.63;64.38;100449.81;7402049;19;1854;-42
2022/05/30 11:13:13;;;;;;;;;;;;;;;21.74;64.52;100457.59;7402036;19;1429;-44
2022/05/30 11:15:45;;;;;;;;;;;;;;;21.71;64.57;100455.25;7403299;19;1456;-42
2022/05/30 11:18:16;;;;;;;;;;;;;;;21.67;65.31;100442.28;7403227;19;1693;-43
2022/05/30 11:20:52;;;;;;;;;;;;;;;21.69;64.80;100448.34;7404362;19;1854;-42
2022/05/30 11:23:21;;;;;;;;;;;;;;;21.73;65.07;100447.00;7402900;19;1915;-44
2022/05/30 11:26:04;;;;;;;;;;;;;;;21.74;65.13;100452.22;7404315;19;1772;-42
2022/05/30 11:28:36;;;;;;;;;;;;;;;21.75;65.40;100453.91;7403546;19;1658;-42
2022/05/30 11:31:10;;;;;;;;;;;;;;;21.74;65.13;100449.53;7402403;19;1857;-43
2022/05/30 11:33:52;;;;;;;;;;;;;;;21.73;65.00;100437.09;7402076;19;1322;-42
2022/05/30 11:36:41;;;;;;;;;;;;;;;21.75;65.12;100443.16;7402314;19;2010;-42
2022/05/30 11:39:15;;;;;;;;;;;;;;;21.85;65.11;100460.00;7401065;19;1554;-43
2022/05/30 11:41:51;;;;;;;;;;;;;;;21.81;65.17;100464.03;7400742;19;1512;-43
2022/05/30 11:44:35;;;;;;;;;;;;;;;21.84;65.05;100461.03;7402611;19;1654;-42
2022/05/30 11:47:10;;;;;;;;;;;;;;;21.94;64.58;100462.72;7397602;19;1738;-44
2022/05/30 11:49:40;;;;;;;;;;;;;;;21.91;64.69;100446.91;7400188;19;1751;-42
2022/05/30 11:52:19;;;;;;;;;;;;;;;22.07;64.71;100452.34;7400332;19;1857;-43
2022/05/30 11:54:56;;;;;;;;;;;;;;;22.06;63.77;100447.97;7401332;19;1445;-42
2022/05/30 11:57:28;;;;;;;;;;;;;;;22.04;63.75;100431.13;7401267;19;1586;-41
2022/05/30 12:00:07;;;;;;;;;;;;;;;22.21;63.84;100437.41;7402045;19;1577;-43
2022/05/30 12:02:47;;;;;;;;;;;;;;;22.24;62.90;100440.66;7398184;19;1545;-43
2022/05/30 12:05:28;;;;;;;;;;;;;;;22.19;63.29;100444.81;7399917;19;1517;-44
2022/05/30 12:08:14;;;;;;;;;;;;;;;22.24;62.74;100437.09;7399736;19;1541;-42
2022/05/30 12:10:53;;;;;;;;;;;;;;;22.31;62.62;100431.91;7400323;19;1862;-43
2022/05/30 12:13:30;;;;;;;;;;;;;;;22.22;63.03;100456.13;7400557;19;1853;-43
2022/05/30 12:16:08;;;;;;;;;;;;;;;22.16;62.79;100450.53;7400553;19;1811;-43
2022/05/30 12:24:30;;;;;;;;;;;;;;;22.10;63.00;100462.78;7401664;19;1641;-43
2022/05/30 12:27:07;;;;;;;;;;;;;;;22.17;62.37;100457.59;7400793;19;1563;-43
2022/05/30 12:29:46;;;;;;;;;;;;;;;22.11;62.81;100459.09;7400906;19;1456;-43
2022/05/30 12:32:19;;;;;;;;;;;;;;;22.07;63.01;100444.28;7399802;19;1865;-42
2022/05/30 12:35:05;;;;;;;;;;;;;;;22.18;62.58;100453.88;7399905;19;1340;-43
2022/05/30 12:37:46;;;;;;;;;;;;;;;22.05;62.99;100459.75;7401704;19;1329;-43
2022/05/30 12:40:24;;;;;;;;;;;;;;;21.98;63.58;100454.16;7399777;19;1744;-42
2022/05/30 12:43:06;;;;;;;;;;;;;;;22.05;63.34;100451.69;7401172;19;1507;-43
2022/05/30 12:45:40;;;;;;;;;;;;;;;22.03;63.52;100440.22;7401650;19;1428;-43
2022/05/30 12:48:13;;;;;;;;;;;;;;;22.10;63.71;100452.00;7399972;19;1471;-43
2022/05/30 12:50:44;;;;;;;;;;;;;;;22.20;63.47;100459.94;7399994;19;1487;-43
2022/05/30 12:53:13;;;;;;;;;;;;;;;22.27;64.63;100444.03;7398296;19;1850;-42
2022/05/30 12:55:42;;;;;;;;;;;;;;;22.42;63.48;100442.34;7399856;19;1910;-43
2022/05/30 12:58:10;;;;;;;;;;;;;;;;;;7400780;19;1409;-42
2022/05/30 13:00:53;;;;;;;;;;;;;;;22.46;62.65;100430.22;7399775;19;1685;-43
2022/05/30 13:03:47;;;;;;;;;;;;;;;22.43;62.71;100444.06;7396672;19;1567;-42
2022/05/30 13:06:23;;;;;;;;;;;;;;;22.68;62.03;100438.69;7400603;19;1649;-43
2022/05/30 13:08:57;;;;;;;;;;;;;;;22.51;62.41;100433.28;7398983;19;1627;-44
2022/05/30 13:11:34;;;;;;;;;;;;;;;22.55;62.96;100439.19;7397480;19;1846;-43
2022/05/30 13:14:08;;;;;;;;;;;;;;;22.60;62.58;100443.06;7399205;19;1633;-44
2022/05/30 13:16:41;;;;;;;;;;;;;;;22.59;62.44;100433.28;7399076;19;1459;-44
2022/05/30 13:19:12;;;;;;;;;;;;;;;22.42;62.84;100423.50;7401928;19;1456;-44
2022/05/30 13:21:46;;;;;;;;;;;;;;;22.56;62.26;100428.25;7407282;19;1640;-44
2022/05/30 13:24:41;;;;;;;;;;;;;;;22.63;62.03;100437.34;7404875;19;1433;-44
2022/05/30 13:27:10;;;;;;;;;;;;;;;22.43;62.55;100433.28;7404905;19;2397;-44
2022/05/30 13:29:40;;;;;;;;;;;;;;;22.36;62.62;100424.16;7405708;19;1801;-44
2022/05/30 13:32:11;;;;;;;;;;;;;;;22.35;63.11;100427.88;7402907;19;1861;-45
2022/05/30 13:34:43;;;;;;;;;;;;;;;22.30;63.28;100424.84;7406151;19;1609;-44
2022/05/30 13:37:14;;;;;;;;;;;;;;;22.31;63.17;100419.28;7407138;19;1462;-44